Time;durP1;ratioP1;P1;durP2;ratioP2;P2;SDS_P1;SDS_P2;PMS_P1;PMS_P2;Temp;Humidity;BMP_temperature;BMP_pressure;BME280_temperature;BME280_humidity;BME280_pressure;Samples;Min_cycle;Max_cycle;Signal;HPM_P1;HPM_P2
2023/03/22 00:01:12;;;;;;;13.57;7.70;;;;;;;;;;5024845;28;20581;-78
2023/03/22 00:03:41;;;;;;;9.70;7.33;;;;;;;;;;5026875;28;20452;-81
2023/03/22 00:06:09;;;;;;;12.20;8.53;;;;;;;;;;5024014;28;20459;-81
2023/03/22 00:08:37;;;;;;;13.27;8.83;;;;;;;;;;5024744;28;20447;-83
2023/03/22 00:11:06;;;;;;;11.67;7.97;;;;;;;;;;5023947;28;20463;-82
2023/03/22 00:13:34;;;;;;;10.07;8.23;;;;;;;;;;5022776;28;20574;-82
2023/03/22 00:16:02;;;;;;;11.10;7.80;;;;;;;;;;5021838;28;20459;-82
2023/03/22 00:18:30;;;;;;;16.70;8.50;;;;;;;;;;5023050;28;20883;-82
2023/03/22 00:21:00;;;;;;;13.90;8.70;;;;;;;;;;5021802;28;20871;-82
2023/03/22 00:23:28;;;;;;;12.00;8.10;;;;;;;;;;5023410;28;20466;-82
2023/03/22 00:25:57;;;;;;;10.20;7.97;;;;;;;;;;5022425;28;20462;-82
2023/03/22 00:28:25;;;;;;;10.63;7.80;;;;;;;;;;5025602;28;20723;-82
2023/03/22 00:30:53;;;;;;;11.03;8.53;;;;;;;;;;5023761;28;20455;-81
2023/03/22 00:33:21;;;;;;;9.77;7.33;;;;;;;;;;5025015;28;20760;-83
2023/03/22 00:35:49;;;;;;;10.77;8.10;;;;;;;;;;5023924;28;20448;-82
2023/03/22 00:38:19;;;;;;;11.10;8.10;;;;;;;;;;5025709;28;20456;-81
2023/03/22 00:40:46;;;;;;;12.40;7.67;;;;;;;;;;5022872;28;20554;-82
2023/03/22 00:43:14;;;;;;;13.33;8.13;;;;;;;;;;5024951;28;20448;-82
2023/03/22 00:45:42;;;;;;;10.87;8.30;;;;;;;;;;5023267;28;20491;-82
2023/03/22 00:48:10;;;;;;;7.90;6.30;;;;;;;;;;5023641;28;20906;-82
2023/03/22 00:50:38;;;;;;;9.97;7.50;;;;;;;;;;5024719;28;20443;-81
2023/03/22 00:53:06;;;;;;;8.20;6.90;;;;;;;;;;5024573;28;20485;-82
2023/03/22 00:55:35;;;;;;;11.20;8.60;;;;;;;;;;5023326;28;20448;-82
2023/03/22 00:58:02;;;;;;;9.83;7.17;;;;;;;;;;5022456;28;20463;-81
2023/03/22 01:00:32;;;;;;;10.17;7.37;;;;;;;;;;5023519;28;20458;-82
2023/03/22 01:03:02;;;;;;;8.33;7.13;;;;;;;;;;5024937;28;20937;-82
2023/03/22 01:05:32;;;;;;;9.87;6.80;;;;;;;;;;5022889;28;20448;-82
2023/03/22 01:08:05;;;;;;;10.13;8.20;;;;;;;;;;5022265;28;20454;-82
2023/03/22 01:10:33;;;;;;;9.67;7.90;;;;;;;;;;5023671;28;20444;-81
2023/03/22 01:13:02;;;;;;;11.83;7.47;;;;;;;;;;5023183;28;20486;-81
2023/03/22 01:15:29;;;;;;;10.37;8.27;;;;;;;;;;5022718;28;20456;-81
2023/03/22 01:17:57;;;;;;;9.60;7.77;;;;;;;;;;5023365;28;20462;-79
2023/03/22 01:20:25;;;;;;;9.20;7.43;;;;;;;;;;5025073;28;20486;-82
2023/03/22 01:22:52;;;;;;;14.73;7.90;;;;;;;;;;5023367;28;20459;-83
2023/03/22 01:25:20;;;;;;;14.20;8.23;;;;;;;;;;5023212;28;20451;-83
2023/03/22 01:27:48;;;;;;;11.97;8.43;;;;;;;;;;5024311;28;20802;-81
2023/03/22 01:30:17;;;;;;;8.53;7.60;;;;;;;;;;5023859;28;20455;-80
2023/03/22 01:32:44;;;;;;;10.67;7.47;;;;;;;;;;5023850;28;20513;-82
2023/03/22 01:35:12;;;;;;;9.33;7.37;;;;;;;;;;5023506;28;20447;-80
2023/03/22 01:37:40;;;;;;;10.43;7.20;;;;;;;;;;5022968;28;20489;-82
2023/03/22 01:40:08;;;;;;;10.67;7.13;;;;;;;;;;5022706;28;20459;-82
2023/03/22 01:42:35;;;;;;;10.20;7.77;;;;;;;;;;5023438;28;20463;-82
2023/03/22 01:45:34;;;;;;;13.00;8.00;;;;;;;;;;5023835;28;20851;-82
2023/03/22 01:48:06;;;;;;;9.73;6.60;;;;;;;;;;5023190;28;20521;-82
2023/03/22 01:50:33;;;;;;;9.87;7.07;;;;;;;;;;5023569;28;20447;-82
2023/03/22 01:53:03;;;;;;;11.23;7.30;;;;;;;;;;5022214;28;20458;-82
2023/03/22 01:55:32;;;;;;;11.30;7.23;;;;;;;;;;5023517;28;20521;-81
2023/03/22 01:58:01;;;;;;;8.97;7.00;;;;;;;;;;5027870;28;20870;-81
2023/03/22 02:00:29;;;;;;;10.70;7.37;;;;;;;;;;5022778;28;20451;-82
2023/03/22 02:02:56;;;;;;;8.17;6.60;;;;;;;;;;5024025;28;20933;-82
2023/03/22 02:05:26;;;;;;;12.40;6.57;;;;;;;;;;5023310;28;20511;-82
2023/03/22 02:07:54;;;;;;;13.70;6.73;;;;;;;;;;5023084;28;20466;-82
2023/03/22 02:10:24;;;;;;;12.33;6.97;;;;;;;;;;5022364;28;20921;-82
2023/03/22 02:12:59;;;;;;;12.90;6.73;;;;;;;;;;5022618;28;20467;-82
2023/03/22 02:15:30;;;;;;;10.07;6.90;;;;;;;;;;5023980;28;20454;-81
2023/03/22 02:18:06;;;;;;;11.63;7.30;;;;;;;;;;5021473;28;20535;-82
2023/03/22 02:20:57;;;;;;;9.70;6.33;;;;;;;;;;5023558;28;20481;-81
2023/03/22 02:23:44;;;;;;;9.90;5.80;;;;;;;;;;5023980;28;20878;-82
2023/03/22 02:26:22;;;;;;;8.67;7.13;;;;;;;;;;5021882;28;20455;-81
2023/03/22 02:28:53;;;;;;;8.77;6.63;;;;;;;;;;5023471;28;20534;-82
2023/03/22 02:31:28;;;;;;;11.73;6.90;;;;;;;;;;5021798;28;20473;-82
2023/03/22 02:34:04;;;;;;;9.63;7.10;;;;;;;;;;5023379;28;20486;-83
2023/03/22 02:36:49;;;;;;;9.70;7.30;;;;;;;;;;5023091;28;20459;-80
2023/03/22 02:39:23;;;;;;;13.37;7.43;;;;;;;;;;5021233;28;20462;-81
2023/03/22 02:41:57;;;;;;;7.33;5.93;;;;;;;;;;5022447;28;20446;-81
2023/03/22 02:44:27;;;;;;;8.53;6.83;;;;;;;;;;5022181;28;20515;-82
2023/03/22 02:47:00;;;;;;;10.40;6.97;;;;;;;;;;5022846;28;20459;-82
2023/03/22 02:49:32;;;;;;;9.27;6.40;;;;;;;;;;5022629;28;20451;-82
2023/03/22 02:52:02;;;;;;;11.03;6.83;;;;;;;;;;5022838;28;20465;-82
2023/03/22 02:54:34;;;;;;;10.03;7.07;;;;;;;;;;5022430;28;20490;-82
2023/03/22 02:57:05;;;;;;;13.30;6.87;;;;;;;;;;5022174;28;20463;-82
2023/03/22 02:59:37;;;;;;;11.43;6.60;;;;;;;;;;5021580;28;20741;-82
2023/03/22 03:02:05;;;;;;;8.60;7.30;;;;;;;;;;5024939;28;20486;-82
2023/03/22 03:04:36;;;;;;;12.00;7.33;;;;;;;;;;5026865;28;20854;-83
2023/03/22 03:07:06;;;;;;;9.03;7.00;;;;;;;;;;5021975;28;20459;-82
2023/03/22 03:09:36;;;;;;;12.50;7.53;;;;;;;;;;5022636;28;20455;-82
2023/03/22 03:12:03;;;;;;;11.73;6.53;;;;;;;;;;5022170;28;20459;-82
2023/03/22 03:14:32;;;;;;;7.63;6.50;;;;;;;;;;5022131;28;20945;-82
2023/03/22 03:17:07;;;;;;;9.10;6.70;;;;;;;;;;5023733;28;20805;-82
2023/03/22 03:19:38;;;;;;;12.43;6.60;;;;;;;;;;5021638;28;20446;-82
2023/03/22 03:22:11;;;;;;;8.00;6.23;;;;;;;;;;5021687;28;20502;-82
2023/03/22 03:24:43;;;;;;;10.47;7.00;;;;;;;;;;5023354;28;20443;-81
2023/03/22 03:27:15;;;;;;;9.10;7.20;;;;;;;;;;5022313;28;20478;-83
2023/03/22 03:29:45;;;;;;;10.70;7.63;;;;;;;;;;5022385;28;20455;-81
2023/03/22 03:32:16;;;;;;;9.13;7.60;;;;;;;;;;5022048;28;20459;-82
2023/03/22 03:34:48;;;;;;;13.00;6.90;;;;;;;;;;5022553;28;20510;-82
2023/03/22 03:37:17;;;;;;;8.93;6.40;;;;;;;;;;5021914;28;20548;-81
2023/03/22 03:39:50;;;;;;;9.33;7.10;;;;;;;;;;5022439;28;20482;-82
2023/03/22 03:42:19;;;;;;;9.90;7.17;;;;;;;;;;5022200;28;20461;-81
2023/03/22 03:44:47;;;;;;;10.23;7.13;;;;;;;;;;5021785;28;20448;-82
2023/03/22 03:47:15;;;;;;;11.27;7.40;;;;;;;;;;5021647;28;20500;-81
2023/03/22 03:49:42;;;;;;;8.70;6.13;;;;;;;;;;5023597;28;20462;-81
2023/03/22 03:52:12;;;;;;;9.30;7.23;;;;;;;;;;5025527;28;20470;-83
2023/03/22 03:54:40;;;;;;;9.70;7.37;;;;;;;;;;5025761;28;20498;-80
2023/03/22 03:57:09;;;;;;;9.13;6.30;;;;;;;;;;5026951;28;20557;-82
2023/03/22 03:59:36;;;;;;;8.50;7.10;;;;;;;;;;5025459;28;20446;-82
2023/03/22 04:02:04;;;;;;;10.77;7.60;;;;;;;;;;5025300;28;20716;-82
2023/03/22 04:04:33;;;;;;;8.53;7.37;;;;;;;;;;5025716;28;20444;-82
2023/03/22 04:07:03;;;;;;;10.43;7.60;;;;;;;;;;5024112;28;20533;-81
2023/03/22 04:09:33;;;;;;;10.63;7.03;;;;;;;;;;5024205;28;21038;-81
2023/03/22 04:12:01;;;;;;;14.97;7.67;;;;;;;;;;5024877;28;20485;-81
2023/03/22 04:14:30;;;;;;;9.93;6.87;;;;;;;;;;5025588;28;20894;-82
2023/03/22 04:16:58;;;;;;;10.37;7.97;;;;;;;;;;5024640;28;20463;-82
2023/03/22 04:19:25;;;;;;;8.10;7.30;;;;;;;;;;5024519;28;20447;-81
2023/03/22 04:21:53;;;;;;;8.33;6.63;;;;;;;;;;5025640;28;20463;-82
2023/03/22 04:24:21;;;;;;;11.37;7.87;;;;;;;;;;5023302;28;20696;-82
2023/03/22 04:26:48;;;;;;;10.63;7.80;;;;;;;;;;5021850;28;20509;-82
2023/03/22 04:29:16;;;;;;;9.90;7.13;;;;;;;;;;5024312;28;20839;-82
2023/03/22 04:31:45;;;;;;;9.37;6.87;;;;;;;;;;5023781;28;20465;-81
2023/03/22 04:34:16;;;;;;;12.87;7.20;;;;;;;;;;5022351;28;20502;-81
2023/03/22 04:36:45;;;;;;;9.20;6.90;;;;;;;;;;5023967;28;20451;-81
2023/03/22 04:39:13;;;;;;;10.37;6.90;;;;;;;;;;5022520;28;20457;-82
2023/03/22 04:41:40;;;;;;;11.30;7.70;;;;;;;;;;5025033;28;20858;-82
2023/03/22 04:44:08;;;;;;;9.47;7.03;;;;;;;;;;5023591;28;20461;-81
2023/03/22 04:46:37;;;;;;;8.57;6.80;;;;;;;;;;5023263;28;20459;-82
2023/03/22 04:49:06;;;;;;;12.63;7.50;;;;;;;;;;5023771;28;20447;-81
2023/03/22 04:51:34;;;;;;;12.53;8.20;;;;;;;;;;5022235;28;20599;-80
2023/03/22 04:54:01;;;;;;;11.20;7.83;;;;;;;;;;5023052;28;20483;-81
2023/03/22 04:56:29;;;;;;;8.10;6.83;;;;;;;;;;5022443;28;20470;-79
2023/03/22 04:58:56;;;;;;;9.67;6.83;;;;;;;;;;5022032;28;20455;-80
2023/03/22 05:01:24;;;;;;;12.00;8.53;;;;;;;;;;5021205;28;20456;-81
2023/03/22 05:03:52;;;;;;;9.53;7.30;;;;;;;;;;5022923;28;20439;-82
2023/03/22 05:06:21;;;;;;;9.40;7.20;;;;;;;;;;5023367;28;20962;-83
2023/03/22 05:08:49;;;;;;;10.60;7.70;;;;;;;;;;5022017;28;20448;-83
2023/03/22 05:11:18;;;;;;;12.80;7.63;;;;;;;;;;5020990;28;20463;-81
2023/03/22 05:13:47;;;;;;;14.43;8.17;;;;;;;;;;5020820;28;20451;-82
2023/03/22 05:16:14;;;;;;;11.63;7.60;;;;;;;;;;5019731;28;20466;-82
2023/03/22 05:18:44;;;;;;;11.07;8.07;;;;;;;;;;5020205;28;20439;-81
2023/03/22 05:21:14;;;;;;;11.90;7.20;;;;;;;;;;5019171;28;20894;-82
2023/03/22 05:23:43;;;;;;;11.30;7.40;;;;;;;;;;5021671;28;20739;-82
2023/03/22 05:26:14;;;;;;;8.17;6.83;;;;;;;;;;5019204;28;20562;-81
2023/03/22 05:28:42;;;;;;;8.13;6.50;;;;;;;;;;5021654;28;20486;-82
2023/03/22 05:31:14;;;;;;;10.47;6.70;;;;;;;;;;5018853;28;20466;-81
2023/03/22 05:33:41;;;;;;;13.87;8.00;;;;;;;;;;5020395;28;20497;-81
2023/03/22 05:36:11;;;;;;;13.60;8.97;;;;;;;;;;5019463;28;20921;-82
2023/03/22 05:38:40;;;;;;;12.63;7.57;;;;;;;;;;5019226;28;20456;-82
2023/03/22 05:41:09;;;;;;;8.83;6.90;;;;;;;;;;5021413;28;20510;-82
2023/03/22 05:43:37;;;;;;;10.80;6.70;;;;;;;;;;5023791;28;20455;-82
2023/03/22 05:46:06;;;;;;;10.17;7.13;;;;;;;;;;5022513;28;20839;-82
2023/03/22 05:48:34;;;;;;;13.60;8.27;;;;;;;;;;5023583;28;20459;-82
2023/03/22 05:51:03;;;;;;;11.57;7.80;;;;;;;;;;5020598;28;20790;-82
2023/03/22 05:53:32;;;;;;;11.10;7.47;;;;;;;;;;5022512;28;20459;-81
2023/03/22 05:56:00;;;;;;;10.17;6.53;;;;;;;;;;5021606;28;20527;-82
2023/03/22 05:58:30;;;;;;;11.03;7.57;;;;;;;;;;5022740;28;20456;-80
2023/03/22 06:00:59;;;;;;;10.40;6.83;;;;;;;;;;5025252;28;20506;-81
2023/03/22 06:03:27;;;;;;;10.70;6.60;;;;;;;;;;5021619;28;20474;-81
2023/03/22 06:05:55;;;;;;;12.37;7.70;;;;;;;;;;5021100;28;20771;-82
2023/03/22 06:08:23;;;;;;;12.30;8.23;;;;;;;;;;5018248;28;20518;-81
2023/03/22 06:10:51;;;;;;;10.70;8.37;;;;;;;;;;5019595;28;20482;-81
2023/03/22 06:13:19;;;;;;;11.03;8.20;;;;;;;;;;5017818;28;20585;-82
2023/03/22 06:15:54;;;;;;;12.00;7.83;;;;;;;;;;5017359;28;20919;-80
2023/03/22 06:18:22;;;;;;;7.93;6.77;;;;;;;;;;5017128;28;20478;-80
2023/03/22 06:20:49;;;;;;;14.07;7.90;;;;;;;;;;5016184;28;20656;-83
2023/03/22 06:23:19;;;;;;;13.10;7.90;;;;;;;;;;5024624;28;20463;-81
2023/03/22 06:25:47;;;;;;;12.17;7.00;;;;;;;;;;5026561;28;20859;-81
2023/03/22 06:28:14;;;;;;;10.50;7.37;;;;;;;;;;5027054;28;20475;-81
2023/03/22 06:30:42;;;;;;;14.30;9.03;;;;;;;;;;5026105;28;20451;-81
2023/03/22 06:33:11;;;;;;;12.40;7.97;;;;;;;;;;5015482;28;20674;-82
2023/03/22 06:35:39;;;;;;;10.87;7.67;;;;;;;;;;5017402;28;20475;-82
2023/03/22 06:38:07;;;;;;;11.93;8.93;;;;;;;;;;5015735;28;20786;-80
2023/03/22 06:40:35;;;;;;;11.30;7.77;;;;;;;;;;5015779;28;20478;-80
2023/03/22 06:43:03;;;;;;;9.63;7.00;;;;;;;;;;5017533;28;20450;-82
2023/03/22 06:45:32;;;;;;;13.03;8.17;;;;;;;;;;5019020;28;20452;-80
2023/03/22 06:48:00;;;;;;;10.90;7.33;;;;;;;;;;5039550;28;20584;-80
2023/03/22 06:50:29;;;;;;;14.30;7.90;;;;;;;;;;5042698;28;20477;-80
2023/03/22 06:52:57;;;;;;;11.80;7.43;;;;;;;;;;5041249;28;20836;-81
2023/03/22 06:55:25;;;;;;;17.13;7.90;;;;;;;;;;5033468;28;20564;-80
2023/03/22 06:57:52;;;;;;;15.70;7.70;;;;;;;;;;5034501;28;20716;-81
2023/03/22 07:00:21;;;;;;;9.50;7.17;;;;;;;;;;5035556;28;20489;-81
2023/03/22 07:02:49;;;;;;;11.90;8.10;;;;;;;;;;5034743;28;20496;-81
2023/03/22 07:05:16;;;;;;;10.23;6.90;;;;;;;;;;5035289;28;20442;-80
2023/03/22 07:07:47;;;;;;;9.97;7.30;;;;;;;;;;5035953;28;20458;-80
2023/03/22 07:10:23;;;;;;;13.03;7.90;;;;;;;;;;5034617;28;20462;-81
2023/03/22 07:12:54;;;;;;;10.27;8.27;;;;;;;;;;5035567;28;20458;-80
2023/03/22 07:15:23;;;;;;;9.90;7.10;;;;;;;;;;5032401;28;20486;-81
2023/03/22 07:17:51;;;;;;;12.10;8.13;;;;;;;;;;5030514;28;20660;-80
2023/03/22 07:20:19;;;;;;;13.90;7.90;;;;;;;;;;5033416;28;20512;-81
2023/03/22 07:22:50;;;;;;;12.30;8.40;;;;;;;;;;5035413;28;20963;-80
2023/03/22 07:25:17;;;;;;;10.63;8.30;;;;;;;;;;5037707;28;20450;-80
2023/03/22 07:27:45;;;;;;;11.73;7.40;;;;;;;;;;5050363;28;20541;-81
2023/03/22 07:30:13;;;;;;;11.60;8.43;;;;;;;;;;5053511;28;20430;-81
2023/03/22 07:32:40;;;;;;;11.73;9.60;;;;;;;;;;5053564;28;20503;-81
2023/03/22 07:35:09;;;;;;;16.20;8.53;;;;;;;;;;5051681;28;20522;-81
2023/03/22 07:37:37;;;;;;;11.80;8.40;;;;;;;;;;5037675;28;20450;-81
2023/03/22 07:40:07;;;;;;;19.23;12.80;;;;;;;;;;5053364;28;20454;-80
2023/03/22 07:42:35;;;;;;;11.10;8.13;;;;;;;;;;5050007;28;20635;-81
2023/03/22 07:45:09;;;;;;;10.00;7.30;;;;;;;;;;5050668;28;20453;-82
2023/03/22 07:47:37;;;;;;;12.03;8.93;;;;;;;;;;5051056;28;20516;-81
2023/03/22 07:50:04;;;;;;;10.63;9.43;;;;;;;;;;5046744;28;20541;-80
2023/03/22 07:52:32;;;;;;;12.83;9.67;;;;;;;;;;5049268;28;20548;-80
2023/03/22 07:55:00;;;;;;;13.80;10.60;;;;;;;;;;5038198;28;20481;-80
2023/03/22 07:57:29;;;;;;;10.80;8.80;;;;;;;;;;5038118;28;20466;-80
2023/03/22 07:59:57;;;;;;;15.47;9.20;;;;;;;;;;5043739;28;20939;-79
2023/03/22 08:02:26;;;;;;;11.37;8.37;;;;;;;;;;5040887;28;20481;-81
2023/03/22 08:04:53;;;;;;;11.30;8.30;;;;;;;;;;5040293;28;20449;-82
2023/03/22 08:07:23;;;;;;;10.47;8.27;;;;;;;;;;5047113;28;20458;-81
2023/03/22 08:09:51;;;;;;;13.27;8.10;;;;;;;;;;5048051;28;20545;-78
2023/03/22 08:12:20;;;;;;;12.40;8.93;;;;;;;;;;5047494;28;20835;-79
2023/03/22 08:14:56;;;;;;;13.97;8.90;;;;;;;;;;5023869;28;20471;-81
2023/03/22 08:17:24;;;;;;;14.23;9.10;;;;;;;;;;5024772;28;20451;-80
2023/03/22 08:19:54;;;;;;;15.77;9.17;;;;;;;;;;5025845;28;20456;-80
2023/03/22 08:22:24;;;;;;;14.83;9.90;;;;;;;;;;5024158;28;20490;-82
2023/03/22 08:24:53;;;;;;;11.10;8.50;;;;;;;;;;5032134;28;20466;-80
2023/03/22 08:27:21;;;;;;;15.20;9.30;;;;;;;;;;5033437;28;20454;-80
2023/03/22 08:32:45;;;;;;;11.47;7.83;;;;;;;;;;5034724;28;20997;-80
2023/03/22 08:35:14;;;;;;;14.93;9.27;;;;;;;;;;5030013;28;20514;-80
2023/03/22 08:37:43;;;;;;;12.23;8.57;;;;;;;;;;5042431;28;21092;-80
2023/03/22 08:40:15;;;;;;;14.30;9.10;;;;;;;;;;5041221;28;20496;-80
2023/03/22 08:42:44;;;;;;;14.10;9.83;;;;;;;;;;5044753;28;20872;-80
2023/03/22 08:45:13;;;;;;;14.30;8.00;;;;;;;;;;5047474;28;20458;-80
2023/03/22 08:47:42;;;;;;;11.17;9.10;;;;;;;;;;5035979;28;20877;-80
2023/03/22 08:50:10;;;;;;;10.73;8.73;;;;;;;;;;5043817;28;20462;-80
2023/03/22 08:52:39;;;;;;;12.57;8.00;;;;;;;;;;5041263;28;20813;-81
2023/03/22 08:55:07;;;;;;;10.57;8.20;;;;;;;;;;5043254;28;20467;-82
2023/03/22 08:57:35;;;;;;;15.17;8.90;;;;;;;;;;5039470;28;20474;-81
2023/03/22 09:00:05;;;;;;;11.30;8.10;;;;;;;;;;5040827;28;20474;-80
2023/03/22 09:02:34;;;;;;;12.03;8.07;;;;;;;;;;5045506;28;20454;-80
2023/03/22 09:05:02;;;;;;;9.93;7.77;;;;;;;;;;5036106;28;20474;-81
2023/03/22 09:07:29;;;;;;;14.30;8.43;;;;;;;;;;5041880;28;20454;-81
2023/03/22 09:10:06;;;;;;;12.03;7.80;;;;;;;;;;5040289;28;20462;-81
2023/03/22 09:12:42;;;;;;;8.23;7.03;;;;;;;;;;5030890;28;20465;-80
2023/03/22 09:15:15;;;;;;;10.57;7.20;;;;;;;;;;5061401;28;20457;-79
2023/03/22 09:17:48;;;;;;;10.10;7.10;;;;;;;;;;5052252;28;20483;-80
2023/03/22 09:20:24;;;;;;;7.90;6.53;;;;;;;;;;5047917;28;20431;-79
2023/03/22 09:22:53;;;;;;;9.53;6.60;;;;;;;;;;5047541;28;20508;-80
2023/03/22 09:25:21;;;;;;;9.07;6.70;;;;;;;;;;5046330;28;20455;-82
2023/03/22 09:27:55;;;;;;;9.50;6.60;;;;;;;;;;5045187;28;20474;-80
2023/03/22 09:30:27;;;;;;;8.60;7.70;;;;;;;;;;5027638;28;20447;-80
2023/03/22 09:32:59;;;;;;;8.33;5.97;;;;;;;;;;5046805;28;20454;-78
2023/03/22 09:35:33;;;;;;;8.80;5.70;;;;;;;;;;5043594;28;20474;-80
2023/03/22 09:38:02;;;;;;;8.50;5.90;;;;;;;;;;5040831;28;20473;-80
2023/03/22 09:40:31;;;;;;;8.23;6.00;;;;;;;;;;5056772;28;20474;-82
2023/03/22 09:42:59;;;;;;;7.67;5.40;;;;;;;;;;5042853;28;20454;-80
2023/03/22 09:45:36;;;;;;;8.53;5.40;;;;;;;;;;5044524;28;20460;-80
2023/03/22 09:48:08;;;;;;;7.87;5.60;;;;;;;;;;5045077;28;20462;-78
2023/03/22 09:50:39;;;;;;;7.20;4.47;;;;;;;;;;5042533;28;21116;-80
2023/03/22 09:53:12;;;;;;;8.60;6.30;;;;;;;;;;5040042;28;20485;-81
2023/03/22 09:55:43;;;;;;;6.40;3.87;;;;;;;;;;5035970;28;20490;-80
2023/03/22 09:58:19;;;;;;;10.30;4.20;;;;;;;;;;5034690;28;20476;-79
2023/03/22 10:00:54;;;;;;;6.40;4.33;;;;;;;;;;5035999;28;20481;-80
2023/03/22 10:03:43;;;;;;;6.37;3.90;;;;;;;;;;5039900;28;20617;-80
2023/03/22 10:06:29;;;;;;;6.90;4.03;;;;;;;;;;5041312;28;20477;-79
2023/03/22 10:09:03;;;;;;;7.13;3.23;;;;;;;;;;5041509;28;20517;-79
2023/03/22 10:11:37;;;;;;;7.00;3.10;;;;;;;;;;5042341;28;20439;-80
2023/03/22 10:14:12;;;;;;;5.60;3.00;;;;;;;;;;5035951;28;20455;-77
2023/03/22 10:16:39;;;;;;;7.27;3.07;;;;;;;;;;5041157;28;20489;-80
2023/03/22 10:19:16;;;;;;;5.07;3.30;;;;;;;;;;5029366;28;20466;-81
2023/03/22 10:21:44;;;;;;;5.30;2.30;;;;;;;;;;5038940;28;20462;-78
2023/03/22 10:24:15;;;;;;;6.03;2.33;;;;;;;;;;5039391;28;20466;-79
2023/03/22 10:26:53;;;;;;;5.20;2.17;;;;;;;;;;5041217;28;20528;-79
2023/03/22 10:29:32;;;;;;;4.27;2.23;;;;;;;;;;5049941;28;20466;-80
2023/03/22 10:32:07;;;;;;;7.53;3.00;;;;;;;;;;5047568;28;20485;-80
2023/03/22 10:34:36;;;;;;;3.33;1.80;;;;;;;;;;5030237;28;20463;-81
2023/03/22 10:37:05;;;;;;;8.57;2.63;;;;;;;;;;5041138;28;20502;-80
2023/03/22 10:39:33;;;;;;;5.37;2.40;;;;;;;;;;5050259;28;20454;-79
2023/03/22 10:42:12;;;;;;;8.27;2.60;;;;;;;;;;5051844;28;20466;-80
2023/03/22 10:44:47;;;;;;;7.43;2.70;;;;;;;;;;5050844;28;20469;-80
2023/03/22 10:47:17;;;;;;;5.87;2.40;;;;;;;;;;5048983;28;20459;-80
2023/03/22 10:49:53;;;;;;;8.60;2.63;;;;;;;;;;5049024;28;20512;-80
2023/03/22 10:52:35;;;;;;;6.23;3.03;;;;;;;;;;5047924;28;20497;-79
2023/03/22 10:55:03;;;;;;;8.37;2.93;;;;;;;;;;5041090;28;20476;-80
2023/03/22 10:57:31;;;;;;;8.13;2.67;;;;;;;;;;5022608;28;20487;-80
2023/03/22 10:59:59;;;;;;;5.13;2.03;;;;;;;;;;5030334;28;20982;-81
2023/03/22 11:02:27;;;;;;;4.13;1.80;;;;;;;;;;5040244;28;20473;-80
2023/03/22 11:04:57;;;;;;;8.37;2.43;;;;;;;;;;5041706;28;20474;-80
2023/03/22 11:07:31;;;;;;;3.53;1.50;;;;;;;;;;5023094;28;20478;-80
2023/03/22 11:10:22;;;;;;;5.07;2.07;;;;;;;;;;5022704;28;20573;-80
2023/03/22 11:12:52;;;;;;;4.97;2.80;;;;;;;;;;5021788;28;20524;-80
2023/03/22 11:15:32;;;;;;;6.83;1.60;;;;;;;;;;5037900;28;20454;-81
2023/03/22 11:18:01;;;;;;;3.90;2.27;;;;;;;;;;5039437;28;20495;-79
2023/03/22 11:20:34;;;;;;;5.70;1.83;;;;;;;;;;5043314;28;20464;-80
2023/03/22 11:23:04;;;;;;;8.20;2.10;;;;;;;;;;5048554;28;20462;-81
2023/03/22 11:25:32;;;;;;;5.17;2.53;;;;;;;;;;5044374;28;20474;-79
2023/03/22 11:28:10;;;;;;;6.37;2.33;;;;;;;;;;5046455;28;20458;-79
2023/03/22 11:30:40;;;;;;;3.73;1.70;;;;;;;;;;5048722;28;20462;-80
2023/03/22 11:33:18;;;;;;;6.90;1.90;;;;;;;;;;5048495;28;20450;-78
2023/03/22 11:35:48;;;;;;;3.60;1.50;;;;;;;;;;5048162;28;20606;-79
2023/03/22 11:38:29;;;;;;;3.70;1.63;;;;;;;;;;5042377;28;20454;-80
2023/03/22 11:41:00;;;;;;;5.87;1.53;;;;;;;;;;5040897;28;20439;-80
2023/03/22 11:43:29;;;;;;;5.10;1.83;;;;;;;;;;5042191;28;20469;-80
2023/03/22 11:45:57;;;;;;;4.20;1.87;;;;;;;;;;5039348;28;20470;-81
2023/03/22 11:48:27;;;;;;;3.90;1.70;;;;;;;;;;5040522;28;20833;-79
2023/03/22 11:50:57;;;;;;;5.57;1.97;;;;;;;;;;5039593;28;20466;-80
2023/03/22 11:53:26;;;;;;;3.80;1.60;;;;;;;;;;5038137;28;20447;-80
2023/03/22 11:55:54;;;;;;;4.93;1.60;;;;;;;;;;5024644;28;20867;-80
2023/03/22 11:58:27;;;;;;;5.00;1.70;;;;;;;;;;5034942;28;20497;-79
2023/03/22 12:00:55;;;;;;;5.57;1.80;;;;;;;;;;5045304;28;20458;-81
2023/03/22 12:03:24;;;;;;;3.50;2.00;;;;;;;;;;5038734;28;20462;-80
2023/03/22 12:05:52;;;;;;;4.50;1.50;;;;;;;;;;5041347;28;20450;-79
2023/03/22 12:08:27;;;;;;;9.17;2.27;;;;;;;;;;5040819;28;20455;-79
2023/03/22 12:10:56;;;;;;;7.83;2.07;;;;;;;;;;5036896;28;20918;-78
2023/03/22 12:13:29;;;;;;;4.00;1.80;;;;;;;;;;5037365;28;20461;-80
2023/03/22 12:16:03;;;;;;;4.97;1.83;;;;;;;;;;5029855;28;20465;-81
2023/03/22 12:18:35;;;;;;;3.17;2.37;;;;;;;;;;5038502;28;20469;-80
2023/03/22 12:21:02;;;;;;;6.07;1.93;;;;;;;;;;5029355;28;20470;-81
2023/03/22 12:23:33;;;;;;;4.20;2.30;;;;;;;;;;5041373;28;20474;-80
2023/03/22 12:26:03;;;;;;;4.03;2.00;;;;;;;;;;5038983;28;20470;-80
2023/03/22 12:28:37;;;;;;;6.60;1.87;;;;;;;;;;5038001;28;20466;-81
2023/03/22 12:31:06;;;;;;;2.37;1.77;;;;;;;;;;5039144;28;20556;-79
2023/03/22 12:33:44;;;;;;;5.07;1.70;;;;;;;;;;5040865;28;20463;-81
2023/03/22 12:36:20;;;;;;;4.40;2.13;;;;;;;;;;5040182;28;20458;-79
2023/03/22 12:38:56;;;;;;;2.70;1.63;;;;;;;;;;5038401;28;20454;-80
2023/03/22 12:41:28;;;;;;;6.03;2.40;;;;;;;;;;5040597;28;20783;-81
2023/03/22 12:43:59;;;;;;;3.90;1.90;;;;;;;;;;5042587;28;20454;-80
2023/03/22 12:46:29;;;;;;;3.70;2.17;;;;;;;;;;5036810;28;20505;-81
2023/03/22 12:49:01;;;;;;;5.20;2.07;;;;;;;;;;5038195;28;20450;-80
2023/03/22 12:51:29;;;;;;;5.53;2.37;;;;;;;;;;5038809;28;20471;-79
2023/03/22 12:54:00;;;;;;;6.93;4.20;;;;;;;;;;5033892;28;20471;-79
2023/03/22 12:56:34;;;;;;;8.97;3.50;;;;;;;;;;5033135;28;20470;-81
2023/03/22 12:59:05;;;;;;;5.83;3.10;;;;;;;;;;5034879;28;21222;-78
2023/03/22 13:01:35;;;;;;;4.47;2.77;;;;;;;;;;5037896;28;20471;-79
2023/03/22 13:04:18;;;;;;;6.00;2.03;;;;;;;;;;5037423;28;20458;-79
2023/03/22 13:06:57;;;;;;;5.20;2.03;;;;;;;;;;5031121;28;20453;-81
2023/03/22 13:09:39;;;;;;;3.13;2.10;;;;;;;;;;5035899;28;20504;-81
2023/03/22 13:12:25;;;;;;;5.20;1.97;;;;;;;;;;5030436;28;20489;-81
2023/03/22 13:14:59;;;;;;;8.50;2.20;;;;;;;;;;5030585;28;20466;-78
2023/03/22 13:17:42;;;;;;;3.47;2.03;;;;;;;;;;5039374;28;20702;-79
2023/03/22 13:20:29;;;;;;;4.60;2.40;;;;;;;;;;5032308;28;20477;-81
2023/03/22 13:23:09;;;;;;;5.80;1.87;;;;;;;;;;5041263;28;20481;-81
2023/03/22 13:25:40;;;;;;;5.47;2.70;;;;;;;;;;5039986;28;20586;-80
2023/03/22 13:28:21;;;;;;;4.20;2.37;;;;;;;;;;5040812;28;20458;-80
2023/03/22 13:30:51;;;;;;;5.90;2.20;;;;;;;;;;5044088;28;21049;-81
2023/03/22 13:33:21;;;;;;;4.40;2.13;;;;;;;;;;5041122;28;21218;-79
2023/03/22 13:35:52;;;;;;;5.10;2.30;;;;;;;;;;5040340;28;20476;-78
2023/03/22 13:38:21;;;;;;;4.67;2.23;;;;;;;;;;5028879;28;20550;-81
2023/03/22 13:40:55;;;;;;;5.87;2.53;;;;;;;;;;5035385;28;20462;-80
2023/03/22 13:43:33;;;;;;;4.17;2.10;;;;;;;;;;5036026;28;20462;-78
2023/03/22 13:46:38;;;;;;;6.23;2.93;;;;;;;;;;5031684;28;20468;-78
2023/03/22 13:55:45;;;;;;;4.70;2.30;;;;;;;;;;5037140;28;20560;-78
2023/03/22 13:58:40;;;;;;;7.87;2.03;;;;;;;;;;5039470;28;20526;-78
2023/03/22 14:01:14;;;;;;;3.60;1.57;;;;;;;;;;5030329;28;20463;-79
2023/03/22 14:03:53;;;;;;;4.50;1.50;;;;;;;;;;5033077;28;20538;-78
2023/03/22 14:06:26;;;;;;;4.90;2.43;;;;;;;;;;5035944;28;20458;-78
2023/03/22 14:08:58;;;;;;;3.67;1.90;;;;;;;;;;5038108;28;20444;-78
2023/03/22 14:11:27;;;;;;;2.00;1.23;;;;;;;;;;5033319;28;20508;-78
2023/03/22 14:13:59;;;;;;;2.80;1.80;;;;;;;;;;5041610;28;20473;-78
2023/03/22 14:19:21;;;;;;;3.20;1.70;;;;;;;;;;5031291;28;20461;-79
2023/03/22 14:21:52;;;;;;;3.50;2.03;;;;;;;;;;5037115;28;20501;-80
2023/03/22 14:24:25;;;;;;;3.43;1.77;;;;;;;;;;5030102;28;20473;-79
2023/03/22 14:27:03;;;;;;;4.37;1.50;;;;;;;;;;5035887;28;20462;-80
2023/03/22 14:33:07;;;;;;;5.07;1.77;;;;;;;;;;5033330;28;20519;-79
2023/03/22 14:35:36;;;;;;;3.10;1.20;;;;;;;;;;5033154;28;20471;-78
2023/03/22 14:38:07;;;;;;;2.73;1.10;;;;;;;;;;5040170;28;20509;-81
2023/03/22 14:40:38;;;;;;;4.97;1.80;;;;;;;;;;5040864;28;20497;-79
2023/03/22 14:43:21;;;;;;;2.93;1.67;;;;;;;;;;5039992;28;20764;-78
2023/03/22 14:45:51;;;;;;;8.60;3.57;;;;;;;;;;5029317;28;20466;-80
2023/03/22 14:48:22;;;;;;;5.03;2.10;;;;;;;;;;5033664;28;20481;-79
2023/03/22 14:50:55;;;;;;;5.80;2.50;;;;;;;;;;5033664;28;20458;-79
2023/03/22 14:53:27;;;;;;;3.50;1.80;;;;;;;;;;5044175;28;20458;-80
2023/03/22 14:55:57;;;;;;;7.30;1.97;;;;;;;;;;5032567;28;21274;-80
2023/03/22 14:58:34;;;;;;;3.17;1.60;;;;;;;;;;5033820;28;20490;-78
2023/03/22 15:04:16;;;;;;;8.10;2.07;;;;;;;;;;5026071;28;20416;-79
2023/03/22 15:06:46;;;;;;;5.43;2.67;;;;;;;;;;5034351;28;20462;-79
2023/03/22 15:09:18;;;;;;;3.80;1.80;;;;;;;;;;5035321;28;20459;-80
2023/03/22 15:11:49;;;;;;;3.90;1.40;;;;;;;;;;5036238;28;20458;-80
2023/03/22 15:14:19;;;;;;;3.53;1.90;;;;;;;;;;5041954;28;20477;-80
2023/03/22 15:16:49;;;;;;;2.83;1.63;;;;;;;;;;5035728;28;20459;-78
2023/03/22 15:19:20;;;;;;;3.83;1.60;;;;;;;;;;5032538;28;20458;-79